Time,TemperatureF,DewpointF,PressureIn,WindDirection,WindDirectionDegrees,WindSpeedMPH,WindSpeedGustMPH,Humidity,HourlyPrecipIn,Conditions,Clouds,dailyrainin,SolarRadiationWatts/m^2,SoftwareType,DateUTC
2013-08-06 00:02:00,47.0,45.0,-100.00,SE,131,0.0,2.0,92,0.00,,,0.12,0.000000,,2013-08-06 04:02:00,
2013-08-06 00:10:00,46.0,44.0,-100.00,East,94,2.0,3.0,94,0.00,,,0.06,0.000000,,2013-08-06 04:10:00,
2013-08-06 00:44:00,46.0,44.0,-100.00,East,94,2.0,3.0,94,0.00,,,0.06,0.000000,,2013-08-06 04:44:00,
2013-08-06 00:54:00,46.0,44.0,-100.00,East,94,2.0,3.0,94,0.00,,,0.06,0.000000,,2013-08-06 04:54:00,
2013-08-06 01:02:00,46.0,44.0,-100.00,East,94,2.0,3.0,94,0.00,,,0.06,0.000000,,2013-08-06 05:02:00,
2013-08-06 01:10:00,44.0,42.0,-100.00,ESE,114,1.0,2.0,94,0.00,,,0.06,0.000000,,2013-08-06 05:10:00,
2013-08-06 01:32:00,44.0,42.0,-100.00,ESE,114,1.0,2.0,94,0.00,,,0.06,0.000000,,2013-08-06 05:32:00,
2013-08-06 01:43:00,44.0,42.0,-100.00,ESE,114,1.0,2.0,94,0.00,,,0.06,0.000000,,2013-08-06 05:43:00,
2013-08-06 01:53:00,44.0,42.0,-100.00,ESE,114,1.0,2.0,94,0.00,,,0.06,0.000000,,2013-08-06 05:53:00,
2013-08-06 02:02:00,44.0,42.0,-100.00,ESE,114,1.0,2.0,94,0.00,,,0.06,0.000000,,2013-08-06 06:02:00,
2013-08-06 02:10:00,43.0,42.0,-100.00,East,88,1.0,2.0,95,0.00,,,0.00,0.000000,,2013-08-06 06:10:00,
2013-08-06 02:43:00,43.0,42.0,-100.00,East,88,1.0,2.0,95,0.00,,,0.00,0.000000,,2013-08-06 06:43:00,
2013-08-06 02:52:00,43.0,42.0,-100.00,East,88,1.0,2.0,95,0.00,,,0.00,0.000000,,2013-08-06 06:52:00,
2013-08-06 03:01:00,43.0,42.0,-100.00,East,88,1.0,2.0,95,0.00,,,0.00,0.000000,,2013-08-06 07:01:00,
2013-08-06 03:10:00,42.0,41.0,-100.00,East,85,0.0,2.0,95,0.00,,,0.00,0.000000,,2013-08-06 07:10:00,
2013-08-06 03:32:00,42.0,41.0,-100.00,East,85,0.0,2.0,95,0.00,,,0.00,0.000000,,2013-08-06 07:32:00,
2013-08-06 03:44:00,42.0,41.0,-100.00,East,85,0.0,2.0,95,0.00,,,0.00,0.000000,,2013-08-06 07:44:00,
2013-08-06 03:53:00,42.0,41.0,-100.00,East,85,0.0,2.0,95,0.00,,,0.00,0.000000,,2013-08-06 07:53:00,
2013-08-06 04:02:00,42.0,41.0,-100.00,East,85,0.0,2.0,95,0.00,,,0.00,0.000000,,2013-08-06 08:02:00,
2013-08-06 04:10:00,42.0,41.0,-100.00,East,92,2.0,2.0,95,0.00,,,0.00,0.000000,,2013-08-06 08:10:00,
2013-08-06 04:33:00,42.0,41.0,-100.00,East,92,2.0,2.0,95,0.00,,,0.00,0.000000,,2013-08-06 08:33:00,
2013-08-06 04:43:00,42.0,41.0,-100.00,East,92,2.0,2.0,95,0.00,,,0.00,0.000000,,2013-08-06 08:43:00,
2013-08-06 04:52:00,42.0,41.0,-100.00,East,92,2.0,2.0,95,0.00,,,0.00,0.000000,,2013-08-06 08:52:00,
2013-08-06 05:01:00,42.0,41.0,-100.00,East,92,2.0,2.0,95,0.00,,,0.00,0.000000,,2013-08-06 09:01:00,
2013-08-06 05:10:00,41.0,40.0,-100.00,East,95,1.0,2.0,96,0.00,,,0.00,0.000000,,2013-08-06 09:10:00,
2013-08-06 05:43:00,41.0,40.0,-100.00,East,95,1.0,2.0,96,0.00,,,0.00,0.000000,,2013-08-06 09:43:00,
2013-08-06 05:52:00,41.0,40.0,-100.00,East,95,1.0,2.0,96,0.00,,,0.00,0.000000,,2013-08-06 09:52:00,
2013-08-06 06:01:00,41.0,40.0,-100.00,East,95,1.0,2.0,96,0.00,,,0.00,0.000000,,2013-08-06 10:01:00,
2013-08-06 06:10:00,42.0,41.0,-100.00,East,91,0.0,2.0,96,0.00,,,0.00,3.000000,,2013-08-06 10:10:00,
2013-08-06 06:43:00,42.0,41.0,-100.00,East,91,0.0,2.0,96,0.00,,,0.00,3.000000,,2013-08-06 10:43:00,
2013-08-06 06:53:00,42.0,41.0,-100.00,East,91,0.0,2.0,96,0.00,,,0.00,3.000000,,2013-08-06 10:53:00,
2013-08-06 07:02:00,42.0,41.0,-100.00,East,91,0.0,2.0,96,0.00,,,0.00,3.000000,,2013-08-06 11:02:00,
2013-08-06 07:10:00,45.0,44.0,-100.00,East,87,1.0,3.0,96,0.00,,,0.00,47.000000,,2013-08-06 11:10:00,
2013-08-06 07:32:00,45.0,44.0,-100.00,East,87,1.0,3.0,96,0.00,,,0.00,47.000000,,2013-08-06 11:32:00,
2013-08-06 07:43:00,45.0,44.0,-100.00,East,87,1.0,3.0,96,0.00,,,0.00,47.000000,,2013-08-06 11:43:00,
2013-08-06 07:53:00,45.0,44.0,-100.00,East,87,1.0,3.0,96,0.00,,,0.00,47.000000,,2013-08-06 11:53:00,
2013-08-06 08:02:00,45.0,44.0,-100.00,East,87,1.0,3.0,96,0.00,,,0.00,47.000000,,2013-08-06 12:02:00,
2013-08-06 08:10:00,52.0,51.0,-100.00,WSW,255,1.0,4.0,96,0.00,,,0.00,129.000000,,2013-08-06 12:10:00,
2013-08-06 08:43:00,52.0,51.0,-100.00,WSW,255,1.0,4.0,96,0.00,,,0.00,129.000000,,2013-08-06 12:43:00,
2013-08-06 08:52:00,52.0,51.0,-100.00,WSW,255,1.0,4.0,96,0.00,,,0.00,129.000000,,2013-08-06 12:52:00,
2013-08-06 09:02:00,52.0,51.0,-100.00,WSW,255,1.0,4.0,96,0.00,,,0.00,129.000000,,2013-08-06 13:02:00,
2013-08-06 09:10:00,58.0,54.0,-100.00,West,274,2.0,4.0,86,0.00,,,0.00,220.000000,,2013-08-06 13:10:00,
2013-08-06 09:32:00,58.0,54.0,-100.00,West,274,2.0,4.0,86,0.00,,,0.00,220.000000,,2013-08-06 13:32:00,
2013-08-06 09:42:00,58.0,54.0,-100.00,West,274,2.0,4.0,86,0.00,,,0.00,220.000000,,2013-08-06 13:42:00,
2013-08-06 09:53:00,58.0,54.0,-100.00,West,274,2.0,4.0,86,0.00,,,0.00,220.000000,,2013-08-06 13:53:00,
2013-08-06 10:01:00,58.0,54.0,-100.00,West,274,2.0,4.0,86,0.00,,,0.00,220.000000,,2013-08-06 14:01:00,
2013-08-06 10:10:00,66.0,53.0,-100.00,West,274,3.0,5.0,62,0.00,,,0.00,479.000000,,2013-08-06 14:10:00,
2013-08-06 10:42:00,66.0,53.0,-100.00,West,274,3.0,5.0,62,0.00,,,0.00,479.000000,,2013-08-06 14:42:00,
2013-08-06 10:53:00,66.0,53.0,-100.00,West,274,3.0,5.0,62,0.00,,,0.00,479.000000,,2013-08-06 14:53:00,
2013-08-06 11:02:00,66.0,53.0,-100.00,West,274,3.0,5.0,62,0.00,,,0.00,479.000000,,2013-08-06 15:02:00,
2013-08-06 11:10:00,71.0,51.0,-100.00,West,274,3.0,5.0,49,0.00,,,0.00,662.000000,,2013-08-06 15:10:00,
2013-08-06 11:44:00,71.0,51.0,-100.00,West,274,3.0,5.0,49,0.00,,,0.00,662.000000,,2013-08-06 15:44:00,
2013-08-06 11:52:00,71.0,51.0,-100.00,West,274,3.0,5.0,49,0.00,,,0.00,662.000000,,2013-08-06 15:52:00,
2013-08-06 12:02:00,71.0,51.0,-100.00,West,274,3.0,5.0,49,0.00,,,0.00,662.000000,,2013-08-06 16:02:00,
2013-08-06 12:10:00,74.0,52.0,-100.00,WSW,258,3.0,6.0,46,0.00,,,-99.99,758.000000,,2013-08-06 16:10:00,
2013-08-06 12:43:00,74.0,52.0,-100.00,WSW,258,3.0,6.0,46,0.00,,,-99.99,758.000000,,2013-08-06 16:43:00,
2013-08-06 12:52:00,74.0,52.0,-100.00,WSW,258,3.0,6.0,46,0.00,,,-99.99,758.000000,,2013-08-06 16:52:00,
2013-08-06 13:02:00,74.0,52.0,-100.00,WSW,258,3.0,6.0,46,0.00,,,-99.99,758.000000,,2013-08-06 17:02:00,
2013-08-06 13:10:00,75.0,46.0,-100.00,WSW,255,4.0,7.0,36,0.00,,,0.00,761.000000,,2013-08-06 17:10:00,
2013-08-06 13:32:00,75.0,46.0,-100.00,WSW,255,4.0,7.0,36,0.00,,,0.00,761.000000,,2013-08-06 17:32:00,
2013-08-06 13:44:00,75.0,46.0,-100.00,WSW,255,4.0,7.0,36,0.00,,,0.00,761.000000,,2013-08-06 17:44:00,
2013-08-06 13:52:00,75.0,46.0,-100.00,WSW,255,4.0,7.0,36,0.00,,,0.00,761.000000,,2013-08-06 17:52:00,
2013-08-06 14:02:00,75.0,46.0,-100.00,WSW,255,4.0,7.0,36,0.00,,,0.00,761.000000,,2013-08-06 18:02:00,
2013-08-06 14:10:00,77.0,49.0,-100.00,WSW,256,3.0,8.0,37,0.00,,,0.00,719.000000,,2013-08-06 18:10:00,
2013-08-06 14:32:00,77.0,49.0,-100.00,WSW,256,3.0,8.0,37,0.00,,,0.00,719.000000,,2013-08-06 18:32:00,
2013-08-06 14:44:00,77.0,49.0,-100.00,WSW,256,3.0,8.0,37,0.00,,,0.00,719.000000,,2013-08-06 18:44:00,
2013-08-06 14:52:00,77.0,49.0,-100.00,WSW,256,3.0,8.0,37,0.00,,,0.00,719.000000,,2013-08-06 18:52:00,
2013-08-06 15:01:00,77.0,49.0,-100.00,WSW,256,3.0,8.0,37,0.00,,,0.00,719.000000,,2013-08-06 19:01:00,
2013-08-06 15:10:00,79.0,51.0,-100.00,WSW,250,4.0,8.0,38,0.00,,,0.00,682.000000,,2013-08-06 19:10:00,
2013-08-06 15:42:00,79.0,51.0,-100.00,WSW,250,4.0,8.0,38,0.00,,,0.00,682.000000,,2013-08-06 19:42:00,
2013-08-06 15:52:00,79.0,51.0,-100.00,WSW,250,4.0,8.0,38,0.00,,,0.00,682.000000,,2013-08-06 19:52:00,
2013-08-06 16:01:00,79.0,51.0,-100.00,WSW,250,4.0,8.0,38,0.00,,,0.00,682.000000,,2013-08-06 20:01:00,
2013-08-06 16:10:00,78.0,50.0,-100.00,West,264,3.0,6.0,37,0.00,,,0.00,455.000000,,2013-08-06 20:10:00,
2013-08-06 16:44:00,78.0,50.0,-100.00,West,264,3.0,6.0,37,0.00,,,0.00,455.000000,,2013-08-06 20:44:00,
2013-08-06 16:52:00,78.0,50.0,-100.00,West,264,3.0,6.0,37,0.00,,,0.00,455.000000,,2013-08-06 20:52:00,
2013-08-06 17:01:00,78.0,50.0,-100.00,West,264,3.0,6.0,37,0.00,,,0.00,455.000000,,2013-08-06 21:01:00,
2013-08-06 17:10:00,78.0,50.0,-100.00,WSW,238,2.0,8.0,37,0.00,,,0.00,444.000000,,2013-08-06 21:10:00,
2013-08-06 17:43:00,78.0,50.0,-100.00,WSW,238,2.0,8.0,37,0.00,,,0.00,444.000000,,2013-08-06 21:43:00,
2013-08-06 17:52:00,78.0,50.0,-100.00,WSW,238,2.0,8.0,37,0.00,,,0.00,444.000000,,2013-08-06 21:52:00,
2013-08-06 18:01:00,78.0,50.0,-100.00,WSW,238,2.0,8.0,37,0.00,,,0.00,444.000000,,2013-08-06 22:01:00,
2013-08-06 18:10:00,75.0,49.0,-100.00,West,268,5.0,9.0,40,0.00,,,0.00,302.000000,,2013-08-06 22:10:00,
2013-08-06 18:43:00,75.0,49.0,-100.00,West,268,5.0,9.0,40,0.00,,,0.00,302.000000,,2013-08-06 22:43:00,
2013-08-06 18:53:00,75.0,49.0,-100.00,West,268,5.0,9.0,40,0.00,,,0.00,302.000000,,2013-08-06 22:53:00,
2013-08-06 19:02:00,75.0,49.0,-100.00,West,268,5.0,9.0,40,0.00,,,0.00,302.000000,,2013-08-06 23:02:00,
2013-08-06 19:10:00,71.0,46.0,-100.00,SW,233,2.0,8.0,41,0.00,,,0.00,162.000000,,2013-08-06 23:10:00,
2013-08-06 19:43:00,71.0,46.0,-100.00,SW,233,2.0,8.0,41,0.00,,,0.00,162.000000,,2013-08-06 23:43:00,
2013-08-06 19:52:00,71.0,46.0,-100.00,SW,233,2.0,8.0,41,0.00,,,0.00,162.000000,,2013-08-06 23:52:00,
2013-08-06 20:01:00,71.0,46.0,-100.00,SW,233,2.0,8.0,41,0.00,,,0.00,162.000000,,2013-08-07 00:01:00,
2013-08-06 20:10:00,62.0,54.0,-100.00,East,101,0.0,2.0,76,0.00,,,0.00,12.000000,,2013-08-07 00:10:00,
2013-08-06 20:43:00,62.0,54.0,-100.00,East,101,0.0,2.0,76,0.00,,,0.00,12.000000,,2013-08-07 00:43:00,
2013-08-06 20:52:00,62.0,54.0,-100.00,East,101,0.0,2.0,76,0.00,,,0.00,12.000000,,2013-08-07 00:52:00,
2013-08-06 21:01:00,62.0,54.0,-100.00,East,101,0.0,2.0,76,0.00,,,0.00,12.000000,,2013-08-07 01:01:00,
2013-08-06 21:10:00,58.0,53.0,-100.00,East,94,0.0,0.0,82,0.00,,,0.00,0.000000,,2013-08-07 01:10:00,
2013-08-06 21:43:00,58.0,53.0,-100.00,East,94,0.0,0.0,82,0.00,,,0.00,0.000000,,2013-08-07 01:43:00,
2013-08-06 21:53:00,58.0,53.0,-100.00,East,94,0.0,0.0,82,0.00,,,0.00,0.000000,,2013-08-07 01:53:00,
2013-08-06 22:02:00,58.0,53.0,-100.00,East,94,0.0,0.0,82,0.00,,,0.00,0.000000,,2013-08-07 02:02:00,
2013-08-06 22:10:00,55.0,52.0,-100.00,East,99,0.0,0.0,90,0.00,,,0.00,0.000000,,2013-08-07 02:10:00,
2013-08-06 22:43:00,55.0,52.0,-100.00,East,99,0.0,0.0,90,0.00,,,0.00,0.000000,,2013-08-07 02:43:00,
2013-08-06 22:53:00,55.0,52.0,-100.00,East,99,0.0,0.0,90,0.00,,,0.00,0.000000,,2013-08-07 02:53:00,
2013-08-06 23:01:00,55.0,52.0,-100.00,East,99,0.0,0.0,90,0.00,,,0.00,0.000000,,2013-08-07 03:01:00,
2013-08-06 23:10:00,53.0,51.0,-100.00,East,97,0.0,0.0,92,0.00,,,0.00,0.000000,,2013-08-07 03:10:00,
2013-08-06 23:43:00,53.0,51.0,-100.00,East,97,0.0,0.0,92,0.00,,,0.00,0.000000,,2013-08-07 03:43:00,
2013-08-06 23:52:00,53.0,51.0,-100.00,East,97,0.0,0.0,92,0.00,,,0.00,0.000000,,2013-08-07 03:52:00,